createdAt,value
2023-05-21T00:00:22.606Z,15.09
2023-05-21T00:02:49.425Z,15.05
2023-05-21T00:05:18.364Z,15.01
2023-05-21T00:07:45.970Z,15.02
2023-05-21T00:10:14.973Z,14.89
2023-05-21T00:12:41.981Z,14.80
2023-05-21T00:15:09.708Z,14.87
2023-05-21T00:17:37.136Z,14.90
2023-05-21T00:20:08.798Z,14.96
2023-05-21T00:22:36.886Z,15.00
2023-05-21T00:25:04.262Z,14.92
2023-05-21T00:27:30.899Z,14.94
2023-05-21T00:29:57.819Z,14.92
2023-05-21T00:32:25.245Z,14.94
2023-05-21T00:34:51.902Z,14.78
2023-05-21T00:37:19.097Z,14.70
2023-05-21T00:39:45.819Z,14.64
2023-05-21T00:42:12.483Z,14.67
2023-05-21T00:44:39.394Z,14.60
2023-05-21T00:47:06.606Z,14.64
2023-05-21T00:49:33.270Z,14.68
2023-05-21T00:52:01.733Z,14.82
2023-05-21T00:54:29.109Z,14.77
2023-05-21T00:56:56.805Z,14.74
2023-05-21T00:59:24.179Z,14.74
2023-05-21T01:01:56.387Z,14.76
2023-05-21T01:04:26.850Z,14.78
2023-05-21T01:06:53.597Z,14.80
2023-05-21T01:09:20.444Z,14.70
2023-05-21T01:11:50.596Z,14.70
2023-05-21T01:14:18.907Z,14.69
2023-05-21T01:16:49.647Z,14.77
2023-05-21T01:19:19.575Z,14.67
2023-05-21T01:21:51.093Z,14.59
2023-05-21T01:24:18.526Z,14.65
2023-05-21T01:26:46.768Z,14.60
2023-05-21T01:29:14.567Z,14.64
2023-05-21T01:32:16.669Z,14.64
2023-05-21T01:34:56.521Z,14.68
2023-05-21T01:37:42.797Z,14.67
2023-05-21T01:40:22.098Z,14.56
2023-05-21T01:42:48.998Z,14.51
2023-05-21T01:45:16.753Z,14.52
2023-05-21T01:47:47.722Z,14.57
2023-05-21T01:50:15.449Z,14.49
2023-05-21T01:52:52.478Z,14.42
2023-05-21T01:55:24.736Z,14.39
2023-05-21T01:57:53.501Z,14.48
2023-05-21T02:00:24.998Z,14.44
2023-05-21T02:02:52.060Z,14.38
2023-05-21T02:05:18.764Z,14.27
2023-05-21T02:07:46.186Z,14.34
2023-05-21T02:10:13.236Z,14.39
2023-05-21T02:12:39.837Z,14.45
2023-05-21T02:15:07.023Z,14.26
2023-05-21T02:17:38.746Z,14.39
2023-05-21T02:20:12.086Z,14.35
2023-05-21T02:22:40.654Z,14.46
2023-05-21T02:25:08.993Z,14.39
2023-05-21T02:27:37.762Z,14.23
2023-05-21T02:30:06.954Z,14.09
2023-05-21T02:32:34.158Z,14.04
2023-05-21T02:35:03.600Z,14.04
2023-05-21T02:37:34.622Z,14.07
2023-05-21T02:40:07.905Z,13.96
2023-05-21T02:42:36.636Z,14.14
2023-05-21T02:45:03.641Z,14.03
2023-05-21T02:47:30.797Z,14.04
2023-05-21T02:49:59.895Z,13.94
2023-05-21T02:52:26.456Z,13.99
2023-05-21T02:54:53.084Z,14.10
2023-05-21T02:57:19.760Z,14.05
2023-05-21T02:59:46.334Z,14.12
2023-05-21T03:02:12.955Z,14.25
2023-05-21T03:04:46.102Z,14.22
2023-05-21T03:07:18.091Z,14.15
2023-05-21T03:09:44.720Z,14.03
2023-05-21T03:12:11.778Z,14.15
2023-05-21T03:14:38.696Z,14.28
2023-05-21T03:17:06.328Z,14.30
2023-05-21T03:19:35.904Z,14.28
2023-05-21T03:22:03.972Z,14.33
2023-05-21T03:24:30.722Z,14.32
2023-05-21T03:26:57.567Z,14.30
2023-05-21T03:29:24.114Z,14.28
2023-05-21T03:31:54.037Z,14.27
2023-05-21T03:34:21.575Z,14.21
2023-05-21T03:36:48.399Z,14.24
2023-05-21T03:39:15.648Z,14.24
2023-05-21T03:41:42.841Z,14.32
2023-05-21T03:44:09.667Z,14.15
2023-05-21T03:46:36.333Z,14.13
2023-05-21T03:49:03.035Z,14.20
2023-05-21T03:51:31.748Z,14.21
2023-05-21T03:53:59.369Z,14.12
2023-05-21T03:56:26.303Z,14.12
2023-05-21T03:58:53.048Z,13.94
2023-05-21T04:01:20.241Z,14.01
2023-05-21T04:03:47.308Z,14.02
2023-05-21T04:06:14.093Z,13.93
2023-05-21T04:08:40.657Z,13.75
2023-05-21T04:11:07.571Z,13.87
2023-05-21T04:13:34.204Z,13.91
2023-05-21T04:16:01.321Z,13.85
2023-05-21T04:18:28.219Z,13.72
2023-05-21T04:20:54.921Z,13.78
2023-05-21T04:23:23.600Z,13.70
2023-05-21T04:25:51.036Z,13.77
2023-05-21T04:28:20.190Z,13.69
2023-05-21T04:30:47.925Z,13.77
2023-05-21T04:33:18.455Z,13.93
2023-05-21T04:35:47.450Z,13.72
2023-05-21T04:38:14.192Z,13.78
2023-05-21T04:40:40.891Z,13.73
2023-05-21T04:43:08.885Z,13.68
2023-05-21T04:45:36.113Z,13.60
2023-05-21T04:48:03.068Z,13.57
2023-05-21T04:50:33.796Z,13.68
2023-05-21T04:53:00.656Z,13.52
2023-05-21T04:55:27.586Z,13.62
2023-05-21T04:57:54.541Z,13.67
2023-05-21T05:00:21.709Z,13.54
2023-05-21T05:02:48.541Z,13.61
2023-05-21T05:05:15.954Z,13.56
2023-05-21T05:07:42.550Z,13.62
2023-05-21T05:10:09.589Z,13.70
2023-05-21T05:12:36.168Z,13.70
2023-05-21T05:15:02.807Z,13.67
2023-05-21T05:17:29.563Z,13.67
2023-05-21T05:19:56.341Z,13.76
2023-05-21T05:22:22.898Z,13.68
2023-05-21T05:24:49.490Z,13.74
2023-05-21T05:27:16.058Z,13.79
2023-05-21T05:29:42.689Z,13.87
2023-05-21T05:32:09.276Z,13.70
2023-05-21T05:34:35.922Z,13.67
2023-05-21T05:37:03.020Z,13.70
2023-05-21T05:39:29.722Z,13.70
2023-05-21T05:41:56.502Z,13.82
2023-05-21T05:44:23.103Z,13.72
2023-05-21T05:46:49.677Z,13.64
2023-05-21T05:49:16.288Z,13.59
2023-05-21T05:51:43.236Z,13.81
2023-05-21T05:54:09.843Z,13.75
2023-05-21T05:56:36.432Z,13.63
2023-05-21T05:59:02.992Z,13.61
2023-05-21T06:01:29.598Z,13.60
2023-05-21T06:03:57.446Z,13.52
2023-05-21T06:06:24.528Z,13.56
2023-05-21T06:08:51.288Z,13.58
2023-05-21T06:11:19.198Z,13.55
2023-05-21T06:13:46.216Z,13.64
2023-05-21T06:16:13.285Z,13.67
2023-05-21T06:18:39.912Z,13.50
2023-05-21T06:21:06.569Z,13.63
2023-05-21T06:23:33.222Z,13.76
2023-05-21T06:25:59.790Z,13.60
2023-05-21T06:28:26.339Z,13.79
2023-05-21T06:30:53.122Z,13.60
2023-05-21T06:33:19.809Z,13.88
2023-05-21T06:35:46.575Z,13.63
2023-05-21T06:38:13.145Z,13.80
2023-05-21T06:40:39.772Z,13.70
2023-05-21T06:43:06.388Z,13.78
2023-05-21T06:45:33.090Z,13.71
2023-05-21T06:47:59.904Z,13.73
2023-05-21T06:50:26.566Z,13.99
2023-05-21T06:52:53.153Z,14.20
2023-05-21T06:55:19.772Z,14.19
2023-05-21T06:57:46.425Z,13.81
2023-05-21T07:00:14.086Z,13.81
2023-05-21T07:02:40.773Z,13.94
2023-05-21T07:05:07.618Z,14.07
2023-05-21T07:07:34.986Z,13.83
2023-05-21T07:10:01.631Z,14.09
2023-05-21T07:12:28.437Z,14.10
2023-05-21T07:14:55.351Z,13.99
2023-05-21T07:17:22.763Z,14.02
2023-05-21T07:19:49.354Z,14.05
2023-05-21T07:22:15.952Z,14.18
2023-05-21T07:24:42.541Z,14.42
2023-05-21T07:27:24.264Z,14.54
2023-05-21T07:29:52.138Z,14.60
2023-05-21T07:32:19.632Z,14.53
2023-05-21T07:34:47.406Z,14.35
2023-05-21T07:37:14.524Z,14.20
2023-05-21T07:39:41.303Z,14.07
2023-05-21T07:42:07.910Z,14.42
2023-05-21T07:44:34.511Z,14.49
2023-05-21T07:47:01.170Z,14.24
2023-05-21T07:49:27.755Z,14.32
2023-05-21T07:51:54.341Z,14.43
2023-05-21T07:54:21.043Z,14.29
2023-05-21T07:56:47.643Z,14.24
2023-05-21T07:59:17.147Z,14.35
2023-05-21T08:01:44.281Z,14.64
2023-05-21T08:04:11.210Z,14.78
2023-05-21T08:06:38.038Z,14.78
2023-05-21T08:09:06.222Z,14.59
2023-05-21T08:11:33.203Z,14.58
2023-05-21T08:14:00.305Z,14.76
2023-05-21T08:16:27.039Z,14.53
2023-05-21T08:18:53.746Z,14.68
2023-05-21T08:21:20.949Z,14.65
2023-05-21T08:23:47.633Z,14.81
2023-05-21T08:26:16.564Z,14.60
2023-05-21T08:28:43.461Z,14.74
2023-05-21T08:31:10.282Z,14.98
2023-05-21T08:33:38.331Z,15.04
2023-05-21T08:36:06.837Z,15.19
2023-05-21T08:38:34.505Z,15.22
2023-05-21T08:41:01.290Z,15.37
2023-05-21T08:43:28.502Z,15.26
2023-05-21T08:45:59.189Z,15.57
2023-05-21T08:48:26.082Z,15.77
2023-05-21T08:50:54.187Z,15.96
2023-05-21T08:53:28.285Z,15.77
2023-05-21T08:55:56.571Z,15.43
2023-05-21T08:58:24.667Z,15.82
2023-05-21T09:00:51.487Z,16.06
2023-05-21T09:03:18.325Z,15.56
2023-05-21T09:05:46.003Z,15.70
2023-05-21T09:08:19.503Z,15.71
2023-05-21T09:10:50.978Z,15.65
2023-05-21T09:13:18.671Z,15.72
2023-05-21T09:15:46.923Z,15.65
2023-05-21T09:18:14.592Z,15.90
2023-05-21T09:20:41.249Z,16.04
2023-05-21T09:23:16.767Z,15.85
2023-05-21T09:25:48.246Z,15.95
2023-05-21T09:28:17.149Z,16.23
2023-05-21T09:30:48.437Z,16.01
2023-05-21T09:33:29.486Z,15.99
2023-05-21T09:35:56.553Z,16.03
2023-05-21T09:38:24.010Z,15.90
2023-05-21T09:40:50.648Z,15.90
2023-05-21T09:43:17.454Z,15.92
2023-05-21T09:45:54.639Z,16.20
2023-05-21T09:48:37.849Z,16.15
2023-05-21T09:51:13.073Z,16.00
2023-05-21T09:53:49.530Z,16.03
2023-05-21T09:56:18.884Z,16.18
2023-05-21T09:58:45.738Z,16.08
2023-05-21T10:01:12.512Z,15.83
2023-05-21T10:03:40.683Z,15.88
2023-05-21T10:06:12.270Z,16.02
2023-05-21T10:08:44.977Z,15.98
2023-05-21T10:11:12.231Z,15.93
2023-05-21T10:13:44.732Z,15.86
2023-05-21T10:16:12.832Z,15.70
2023-05-21T10:18:42.274Z,15.80
2023-05-21T10:21:09.150Z,15.56
2023-05-21T10:23:37.817Z,15.70
2023-05-21T10:26:07.204Z,15.77
2023-05-21T10:28:34.126Z,15.80
2023-05-21T10:31:01.661Z,15.67
2023-05-21T10:33:29.804Z,15.64
2023-05-21T10:35:58.730Z,15.98
2023-05-21T10:38:25.564Z,15.73
2023-05-21T10:40:53.632Z,15.96
2023-05-21T10:43:44.264Z,15.72
2023-05-21T10:46:16.928Z,15.73
2023-05-21T10:49:17.868Z,15.96
2023-05-21T10:52:06.459Z,16.00
2023-05-21T10:54:57.516Z,16.07
2023-05-21T10:57:42.578Z,15.88
2023-05-21T11:00:12.659Z,15.93
2023-05-21T11:02:40.151Z,15.69
2023-05-21T11:05:07.491Z,15.93
2023-05-21T11:08:02.434Z,15.98
2023-05-21T11:10:39.591Z,15.77
2023-05-21T11:13:25.345Z,15.83
2023-05-21T11:15:57.895Z,15.78
2023-05-21T11:18:47.437Z,15.99
2023-05-21T11:21:18.974Z,16.01
2023-05-21T11:23:52.245Z,16.23
2023-05-21T11:26:39.446Z,16.19
2023-05-21T11:29:06.299Z,16.23
2023-05-21T11:31:38.786Z,16.42
2023-05-21T11:34:09.026Z,16.48
2023-05-21T11:36:38.114Z,16.47
2023-05-21T11:39:17.263Z,16.56
2023-05-21T11:42:01.588Z,16.16
2023-05-21T11:44:43.440Z,16.23
2023-05-21T11:47:12.271Z,16.07
2023-05-21T11:49:39.446Z,16.24
2023-05-21T11:52:07.699Z,16.24
2023-05-21T11:54:40.332Z,16.31
2023-05-21T11:57:08.267Z,16.39
2023-05-21T11:59:36.379Z,16.49
2023-05-21T12:02:04.887Z,16.42
2023-05-21T12:04:39.007Z,16.44
2023-05-21T12:07:09.117Z,16.49
2023-05-21T12:09:43.989Z,16.58
2023-05-21T12:12:16.143Z,16.51
2023-05-21T12:14:47.991Z,16.48
2023-05-21T12:17:31.834Z,16.48
2023-05-21T12:19:59.168Z,16.46
2023-05-21T12:22:28.021Z,16.54
2023-05-21T12:24:54.726Z,16.46
2023-05-21T12:27:22.541Z,16.66
2023-05-21T12:29:51.828Z,16.65
2023-05-21T12:32:20.967Z,16.44
2023-05-21T12:34:50.084Z,16.54
2023-05-21T12:37:22.109Z,16.62
2023-05-21T12:39:51.026Z,16.45
2023-05-21T12:42:26.226Z,16.59
2023-05-21T12:44:53.682Z,16.55
2023-05-21T12:47:24.093Z,16.71
2023-05-21T12:49:53.107Z,16.90
2023-05-21T12:52:21.480Z,17.09
2023-05-21T12:54:52.689Z,17.09
2023-05-21T12:57:21.340Z,16.92
2023-05-21T12:59:52.928Z,16.75
2023-05-21T13:02:31.550Z,16.88
2023-05-21T13:04:59.648Z,17.01
2023-05-21T13:07:27.583Z,17.29
2023-05-21T13:09:55.227Z,17.25
2023-05-21T13:12:27.064Z,17.23
2023-05-21T13:14:58.601Z,17.34
2023-05-21T13:17:26.225Z,17.48
2023-05-21T13:20:20.107Z,17.39
2023-05-21T13:22:52.023Z,17.37
2023-05-21T13:25:21.603Z,17.56
2023-05-21T13:27:49.741Z,17.90
2023-05-21T13:30:16.694Z,17.55
2023-05-21T13:32:44.170Z,17.16
2023-05-21T13:35:12.191Z,16.92
2023-05-21T13:37:40.808Z,17.34
2023-05-21T13:40:12.089Z,17.38
2023-05-21T13:42:39.119Z,17.41
2023-05-21T13:45:07.704Z,17.31
2023-05-21T13:47:37.488Z,17.90
2023-05-21T13:50:06.470Z,18.00
2023-05-21T13:52:33.138Z,17.93
2023-05-21T13:54:59.829Z,17.98
2023-05-21T13:57:27.105Z,17.69
2023-05-21T13:59:53.958Z,18.08
2023-05-21T14:02:20.789Z,18.31
2023-05-21T14:04:47.464Z,18.29
2023-05-21T14:07:14.167Z,18.14
2023-05-21T14:09:42.396Z,18.29
2023-05-21T14:12:09.357Z,18.34
2023-05-21T14:14:36.237Z,18.31
2023-05-21T14:17:02.846Z,18.70
2023-05-21T14:19:29.613Z,18.61
2023-05-21T14:21:56.785Z,18.10
2023-05-21T14:24:23.443Z,18.26
2023-05-21T14:26:50.021Z,18.47
2023-05-21T14:29:16.608Z,18.94
2023-05-21T14:31:43.363Z,19.11
2023-05-21T14:34:10.207Z,18.92
2023-05-21T14:36:36.825Z,18.63
2023-05-21T14:39:03.869Z,18.90
2023-05-21T14:41:30.899Z,18.90
2023-05-21T14:43:57.510Z,19.20
2023-05-21T14:46:24.295Z,19.30
2023-05-21T14:48:50.921Z,19.06
2023-05-21T14:51:17.611Z,18.88
2023-05-21T14:53:44.314Z,18.12
2023-05-21T14:56:10.943Z,18.41
2023-05-21T14:58:37.533Z,18.53
2023-05-21T15:01:04.355Z,18.72
2023-05-21T15:03:31.119Z,18.84
2023-05-21T15:05:58.733Z,18.81
2023-05-21T15:08:25.519Z,19.09
2023-05-21T15:10:52.204Z,19.44
2023-05-21T15:13:19.005Z,20.15
2023-05-21T15:15:46.141Z,20.35
2023-05-21T15:18:13.119Z,21.25
2023-05-21T15:20:39.755Z,22.01
2023-05-21T15:23:16.970Z,21.14
2023-05-21T15:25:45.716Z,20.31
2023-05-21T15:28:12.811Z,20.07
2023-05-21T15:30:39.905Z,20.06
2023-05-21T15:33:06.635Z,19.57
2023-05-21T15:35:33.481Z,19.87
2023-05-21T15:38:00.334Z,19.68
2023-05-21T15:40:27.382Z,19.97
2023-05-21T15:42:54.490Z,20.45
2023-05-21T15:45:21.204Z,20.56
2023-05-21T15:47:48.042Z,20.03
2023-05-21T15:50:14.780Z,20.30
2023-05-21T15:52:42.643Z,20.30
2023-05-21T15:55:09.608Z,20.18
2023-05-21T15:57:36.230Z,20.26
2023-05-21T16:00:03.832Z,20.55
2023-05-21T16:02:30.551Z,20.28
2023-05-21T16:04:57.282Z,20.26
2023-05-21T16:07:24.565Z,20.88
2023-05-21T16:09:51.447Z,20.80
2023-05-21T16:12:18.230Z,20.38
2023-05-21T16:14:44.881Z,20.25
2023-05-21T16:17:11.638Z,20.30
2023-05-21T16:19:38.993Z,20.15
2023-05-21T16:22:05.924Z,20.21
2023-05-21T16:24:33.074Z,20.12
2023-05-21T16:26:59.847Z,19.80
2023-05-21T16:29:26.613Z,20.06
2023-05-21T16:31:53.300Z,20.05
2023-05-21T16:34:19.928Z,20.17
2023-05-21T16:36:46.811Z,20.21
2023-05-21T16:39:13.403Z,20.43
2023-05-21T16:41:40.026Z,20.27
2023-05-21T16:44:06.635Z,20.08
2023-05-21T16:46:33.291Z,19.83
2023-05-21T16:49:01.444Z,19.52
2023-05-21T16:51:28.015Z,19.60
2023-05-21T16:53:54.620Z,19.57
2023-05-21T16:56:21.856Z,19.67
2023-05-21T16:58:48.571Z,19.74
2023-05-21T17:01:15.281Z,19.82
2023-05-21T17:03:43.346Z,19.80
2023-05-21T17:06:10.207Z,19.65
2023-05-21T17:08:36.817Z,19.49
2023-05-21T17:11:03.584Z,19.56
2023-05-21T17:13:30.137Z,19.56
2023-05-21T17:15:56.782Z,19.46
2023-05-21T17:18:23.409Z,19.41
2023-05-21T17:20:50.167Z,19.25
2023-05-21T17:23:17.020Z,19.20
2023-05-21T17:25:43.707Z,19.11
2023-05-21T17:28:11.283Z,19.22
2023-05-21T17:30:38.052Z,18.98
2023-05-21T17:33:04.774Z,19.06
2023-05-21T17:35:31.356Z,19.03
2023-05-21T17:37:58.073Z,18.96
2023-05-21T17:40:25.128Z,19.01
2023-05-21T17:42:52.579Z,18.90
2023-05-21T17:45:19.622Z,18.88
2023-05-21T17:47:46.408Z,18.77
2023-05-21T17:50:13.115Z,18.91
2023-05-21T17:52:39.884Z,18.82
2023-05-21T17:55:07.903Z,18.75
2023-05-21T17:57:36.070Z,18.70
2023-05-21T18:00:04.971Z,18.68
2023-05-21T18:02:31.873Z,18.70
2023-05-21T18:04:58.607Z,18.62
2023-05-21T18:07:25.715Z,18.68
2023-05-21T18:09:52.401Z,18.65
2023-05-21T18:12:19.595Z,18.58
2023-05-21T18:14:46.267Z,18.61
2023-05-21T18:17:13.090Z,18.64
2023-05-21T18:19:39.760Z,18.70
2023-05-21T18:22:06.636Z,18.58
2023-05-21T18:24:33.315Z,18.62
2023-05-21T18:27:00.026Z,18.44
2023-05-21T18:29:26.684Z,18.42
2023-05-21T18:31:53.790Z,18.47
2023-05-21T18:34:20.833Z,18.44
2023-05-21T18:36:48.300Z,18.43
2023-05-21T18:39:14.993Z,18.50
2023-05-21T18:41:41.919Z,18.46
2023-05-21T18:44:08.853Z,18.48
2023-05-21T18:46:36.163Z,18.34
2023-05-21T18:49:02.896Z,18.31
2023-05-21T18:51:29.561Z,18.26
2023-05-21T18:53:56.098Z,18.20
2023-05-21T18:56:23.362Z,18.20
2023-05-21T18:58:49.976Z,18.17
2023-05-21T19:01:17.848Z,18.16
2023-05-21T19:03:44.505Z,18.10
2023-05-21T19:06:11.202Z,18.14
2023-05-21T19:08:37.845Z,18.07
2023-05-21T19:11:04.502Z,17.99
2023-05-21T19:13:31.095Z,18.00
2023-05-21T19:15:58.713Z,17.95
2023-05-21T19:18:30.403Z,17.87
2023-05-21T19:20:57.482Z,17.87
2023-05-21T19:23:24.898Z,17.87
2023-05-21T19:25:51.604Z,17.80
2023-05-21T19:28:18.918Z,17.77
2023-05-21T19:30:46.394Z,17.70
2023-05-21T19:33:13.625Z,17.67
2023-05-21T19:35:41.998Z,17.60
2023-05-21T19:38:11.751Z,17.65
2023-05-21T19:40:38.685Z,17.69
2023-05-21T19:43:05.694Z,17.73
2023-05-21T19:45:32.415Z,17.67
2023-05-21T19:47:59.906Z,17.65
2023-05-21T19:50:28.666Z,17.57
2023-05-21T19:52:58.777Z,17.51
2023-05-21T19:55:25.769Z,17.46
2023-05-21T19:57:52.384Z,17.57
2023-05-21T20:00:19.337Z,17.54
2023-05-21T20:02:46.459Z,17.49
2023-05-21T20:05:13.521Z,17.51
2023-05-21T20:07:40.164Z,17.35
2023-05-21T20:10:08.686Z,17.35
2023-05-21T20:12:35.700Z,17.29
2023-05-21T20:15:03.453Z,17.35
2023-05-21T20:17:30.631Z,17.31
2023-05-21T20:19:59.093Z,17.33
2023-05-21T20:22:26.289Z,17.26
2023-05-21T20:24:53.043Z,17.23
2023-05-21T20:27:20.069Z,17.27
2023-05-21T20:29:46.865Z,17.29
2023-05-21T20:32:13.553Z,17.28
2023-05-21T20:34:50.729Z,17.20
2023-05-21T20:37:29.202Z,17.23
2023-05-21T20:39:57.993Z,17.24
2023-05-21T20:42:28.756Z,17.19
2023-05-21T20:44:59.208Z,17.19
2023-05-21T20:47:30.136Z,17.17
2023-05-21T20:49:59.537Z,17.11
2023-05-21T20:52:27.111Z,17.09
2023-05-21T20:54:55.025Z,17.06
2023-05-21T20:57:26.223Z,17.03
2023-05-21T20:59:53.503Z,17.00
2023-05-21T21:02:21.245Z,17.01
2023-05-21T21:04:49.188Z,16.92
2023-05-21T21:07:19.694Z,16.94
2023-05-21T21:09:47.355Z,16.88
2023-05-21T21:12:25.272Z,16.87
2023-05-21T21:14:52.914Z,16.88
2023-05-21T21:17:19.694Z,16.88
2023-05-21T21:19:46.361Z,16.85
2023-05-21T21:22:13.145Z,16.82
2023-05-21T21:24:39.833Z,16.78
2023-05-21T21:27:06.794Z,16.78
2023-05-21T21:29:33.421Z,16.81
2023-05-21T21:31:59.998Z,16.78
2023-05-21T21:34:27.378Z,16.78
2023-05-21T21:36:54.498Z,16.73
2023-05-21T21:39:21.198Z,16.77
2023-05-21T21:41:47.809Z,16.70
2023-05-21T21:44:14.451Z,16.72
2023-05-21T21:46:41.056Z,16.66
2023-05-21T21:49:07.706Z,16.64
2023-05-21T21:51:34.935Z,16.61
2023-05-21T21:54:01.603Z,16.63
2023-05-21T21:56:30.078Z,16.64
2023-05-21T21:58:57.163Z,16.64
2023-05-21T22:01:23.961Z,16.61
2023-05-21T22:03:50.647Z,16.63
2023-05-21T22:06:17.246Z,16.66
2023-05-21T22:08:43.841Z,16.66
2023-05-21T22:11:10.808Z,16.65
2023-05-21T22:13:37.754Z,16.65
2023-05-21T22:16:05.443Z,16.65
2023-05-21T22:18:39.522Z,16.66
2023-05-21T22:21:09.688Z,16.63
2023-05-21T22:23:37.519Z,16.68
2023-05-21T22:26:04.377Z,16.69
2023-05-21T22:28:31.012Z,16.67
2023-05-21T22:30:59.367Z,16.65
2023-05-21T22:33:26.819Z,16.61
2023-05-21T22:35:54.274Z,16.62
2023-05-21T22:38:21.067Z,16.61
2023-05-21T22:40:47.688Z,16.61
2023-05-21T22:43:14.321Z,16.61
2023-05-21T22:45:40.973Z,16.57
2023-05-21T22:48:09.415Z,16.58
2023-05-21T22:50:36.607Z,16.62
2023-05-21T22:53:03.497Z,16.62
2023-05-21T22:55:30.734Z,16.62
2023-05-21T22:57:57.300Z,16.58
2023-05-21T23:00:24.034Z,16.60
2023-05-21T23:02:53.833Z,16.57
2023-05-21T23:05:21.099Z,16.62
2023-05-21T23:07:47.742Z,16.63
2023-05-21T23:10:14.657Z,16.61
2023-05-21T23:12:41.401Z,16.57
2023-05-21T23:15:09.721Z,16.55
2023-05-21T23:17:37.310Z,16.57
2023-05-21T23:20:04.832Z,16.56
2023-05-21T23:22:32.120Z,16.60
2023-05-21T23:24:58.725Z,16.57
2023-05-21T23:27:25.312Z,16.59
2023-05-21T23:29:51.906Z,16.53
2023-05-21T23:32:18.562Z,16.49
2023-05-21T23:34:45.231Z,16.49
2023-05-21T23:37:12.196Z,16.47
2023-05-21T23:39:38.869Z,16.44
2023-05-21T23:42:06.150Z,16.47
2023-05-21T23:44:33.526Z,16.50
2023-05-21T23:47:00.107Z,16.50
2023-05-21T23:49:26.736Z,16.48
2023-05-21T23:51:53.520Z,16.50
2023-05-21T23:54:20.234Z,16.49
2023-05-21T23:56:46.888Z,16.44
2023-05-21T23:59:13.952Z,16.45
